createdAt,value
2023-04-24T00:01:08.584Z,3.25
2023-04-24T00:04:15.262Z,2.42
2023-04-24T00:07:18.637Z,2.25
2023-04-24T00:10:23.085Z,2.30
2023-04-24T00:13:26.204Z,2.55
2023-04-24T00:16:29.075Z,2.30
2023-04-24T00:19:31.928Z,2.50
2023-04-24T00:22:35.297Z,2.75
2023-04-24T00:25:39.572Z,3.22
2023-04-24T00:28:42.334Z,2.40
2023-04-24T00:31:45.162Z,2.47
2023-04-24T00:34:47.900Z,2.60
2023-04-24T00:37:50.703Z,2.47
2023-04-24T00:40:55.593Z,2.28
2023-04-24T00:43:59.121Z,2.53
2023-04-24T00:47:02.654Z,2.58
2023-04-24T00:50:06.323Z,2.67
2023-04-24T00:53:09.167Z,2.55
2023-04-24T00:56:13.622Z,2.00
2023-04-24T00:59:18.518Z,2.50
2023-04-24T01:02:22.282Z,2.70
2023-04-24T01:05:25.217Z,2.40
2023-04-24T01:08:30.295Z,2.13
2023-04-24T01:11:34.501Z,2.50
2023-04-24T01:14:37.345Z,2.75
2023-04-24T01:17:40.703Z,2.40
2023-04-24T01:20:46.125Z,2.20
2023-04-24T01:24:02.997Z,2.58
2023-04-24T01:27:05.793Z,2.58
2023-04-24T01:30:09.764Z,2.85
2023-04-24T01:33:12.640Z,2.20
2023-04-24T01:36:16.058Z,2.17
2023-04-24T01:39:21.544Z,2.38
2023-04-24T01:42:24.787Z,2.67
2023-04-24T01:45:27.538Z,2.60
2023-04-24T01:48:31.200Z,2.20
2023-04-24T01:51:33.998Z,2.35
2023-04-24T01:54:38.162Z,2.40
2023-04-24T01:57:41.933Z,2.20
2023-04-24T02:00:44.707Z,2.30
2023-04-24T02:03:47.810Z,2.05
2023-04-24T02:06:50.671Z,2.03
2023-04-24T02:09:54.805Z,1.90
2023-04-24T02:12:57.684Z,1.98
2023-04-24T02:16:01.054Z,2.30
2023-04-24T02:19:04.012Z,2.05
2023-04-24T02:22:06.853Z,2.22
2023-04-24T02:25:12.782Z,2.25
2023-04-24T02:28:15.582Z,2.05
2023-04-24T02:31:18.546Z,2.20
2023-04-24T02:34:21.322Z,2.10
2023-04-24T02:37:24.073Z,2.42
2023-04-24T02:40:28.408Z,2.15
2023-04-24T02:43:31.156Z,2.03
2023-04-24T02:46:34.412Z,2.40
2023-04-24T02:49:37.259Z,1.98
2023-04-24T02:52:40.054Z,2.00
2023-04-24T02:55:44.260Z,2.25
2023-04-24T02:58:47.149Z,2.25
2023-04-24T03:01:50.075Z,2.15
2023-04-24T03:04:52.860Z,2.20
2023-04-24T03:07:56.991Z,2.22
2023-04-24T03:11:01.079Z,2.10
2023-04-24T03:14:03.853Z,2.05
2023-04-24T03:17:06.612Z,2.15
2023-04-24T03:20:10.767Z,2.00
2023-04-24T03:23:14.423Z,2.20
2023-04-24T03:26:18.669Z,2.00
2023-04-24T03:29:35.707Z,2.13
2023-04-24T03:32:40.298Z,2.10
2023-04-24T03:35:44.913Z,1.90
2023-04-24T03:38:48.939Z,2.08
2023-04-24T03:42:01.313Z,1.95
2023-04-24T03:45:16.750Z,2.00
2023-04-24T03:48:23.957Z,1.77
2023-04-24T03:51:28.764Z,1.80
2023-04-24T03:54:35.933Z,1.70
2023-04-24T03:57:40.076Z,2.00
2023-04-24T04:00:53.296Z,2.10
2023-04-24T04:04:14.628Z,1.90
2023-04-24T04:07:18.956Z,2.05
2023-04-24T04:10:22.009Z,2.33
2023-04-24T04:13:26.102Z,2.00
2023-04-24T04:16:29.108Z,1.92
2023-04-24T04:19:38.010Z,1.95
2023-04-24T04:22:44.115Z,1.73
2023-04-24T04:25:50.921Z,1.90
2023-04-24T04:28:56.928Z,1.80
2023-04-24T04:32:00.077Z,1.80
2023-04-24T04:35:04.600Z,1.80
2023-04-24T04:38:09.464Z,1.90
2023-04-24T04:41:26.318Z,1.58
2023-04-24T04:44:31.663Z,2.00
2023-04-24T04:47:35.855Z,1.58
2023-04-24T04:50:38.702Z,1.80
2023-04-24T04:53:44.128Z,1.88
2023-04-24T04:56:47.046Z,2.00
2023-04-24T04:59:51.142Z,1.83
2023-04-24T05:03:16.792Z,2.05
2023-04-24T05:06:24.860Z,2.00
2023-04-24T05:09:30.376Z,1.60
2023-04-24T05:12:38.413Z,1.85
2023-04-24T05:15:42.998Z,1.58
2023-04-24T05:18:45.759Z,2.10
2023-04-24T05:21:51.509Z,1.70
2023-04-24T05:24:54.610Z,1.85
2023-04-24T05:28:20.726Z,1.52
2023-04-24T05:31:34.238Z,1.90
2023-04-24T05:34:37.322Z,1.65
2023-04-24T05:37:40.125Z,1.55
2023-04-24T05:40:43.645Z,1.90
2023-04-24T05:43:46.431Z,1.85
2023-04-24T05:46:50.839Z,1.98
2023-04-24T05:49:55.081Z,1.65
2023-04-24T05:52:59.088Z,1.80
2023-04-24T05:56:06.518Z,1.70
2023-04-24T05:59:10.066Z,1.88
2023-04-24T06:02:14.747Z,1.90
2023-04-24T06:05:18.605Z,1.50
2023-04-24T06:08:21.384Z,1.75
2023-04-24T06:11:25.850Z,1.77
2023-04-24T06:14:28.904Z,2.13
2023-04-24T06:17:52.494Z,1.95
2023-04-24T06:20:57.090Z,1.60
2023-04-24T06:24:00.982Z,1.40
2023-04-24T06:27:03.811Z,1.50
2023-04-24T06:30:08.112Z,1.60
2023-04-24T06:33:20.011Z,2.10
2023-04-24T06:36:24.135Z,1.88
2023-04-24T06:39:26.951Z,1.92
2023-04-24T06:42:29.685Z,1.90
2023-04-24T06:45:32.492Z,1.70
2023-04-24T06:48:36.688Z,1.90
2023-04-24T06:51:39.486Z,1.60
2023-04-24T06:54:43.722Z,1.48
2023-04-24T06:57:46.752Z,1.65
2023-04-24T07:00:49.478Z,1.92
2023-04-24T07:03:53.754Z,1.55
2023-04-24T07:06:58.623Z,1.70
2023-04-24T07:10:01.572Z,1.55
2023-04-24T07:13:04.391Z,1.90
2023-04-24T07:16:07.218Z,1.63
2023-04-24T07:19:11.538Z,1.63
2023-04-24T07:22:36.566Z,1.95
2023-04-24T07:25:40.309Z,2.05
2023-04-24T07:28:43.212Z,1.50
2023-04-24T07:31:46.328Z,1.85
2023-04-24T07:34:50.811Z,1.60
2023-04-24T07:37:53.763Z,1.80
2023-04-24T07:40:56.612Z,1.60
2023-04-24T07:44:00.489Z,1.50
2023-04-24T07:47:03.392Z,1.52
2023-04-24T07:50:08.331Z,1.38
2023-04-24T07:53:11.244Z,1.63
2023-04-24T07:56:14.234Z,1.60
2023-04-24T07:59:17.137Z,1.60
2023-04-24T08:02:20.116Z,1.77
2023-04-24T08:05:26.617Z,1.50
2023-04-24T08:08:29.631Z,1.70
2023-04-24T08:11:32.808Z,1.50
2023-04-24T08:14:36.142Z,1.98
2023-04-24T08:17:38.957Z,1.25
2023-04-24T08:20:43.192Z,1.63
2023-04-24T08:23:46.111Z,1.45
2023-04-24T08:26:51.320Z,1.90
2023-04-24T08:29:55.185Z,1.60
2023-04-24T08:32:58.191Z,1.60
2023-04-24T08:36:02.470Z,1.30
2023-04-24T08:39:05.307Z,1.02
2023-04-24T08:42:09.200Z,1.02
2023-04-24T08:45:13.521Z,1.30
2023-04-24T08:48:29.660Z,1.40
2023-04-24T08:51:35.163Z,1.20
2023-04-24T08:54:39.059Z,1.20
2023-04-24T08:57:42.220Z,1.27
2023-04-24T09:00:48.086Z,1.40
2023-04-24T09:03:51.494Z,1.30
2023-04-24T09:06:57.925Z,1.13
2023-04-24T09:10:01.616Z,1.20
2023-04-24T09:13:04.467Z,1.30
2023-04-24T09:16:07.390Z,1.30
2023-04-24T09:19:10.364Z,1.42
2023-04-24T09:22:14.540Z,1.40
2023-04-24T09:25:18.284Z,1.50
2023-04-24T09:28:21.020Z,1.15
2023-04-24T09:31:24.207Z,1.27
2023-04-24T09:34:28.731Z,1.30
2023-04-24T09:37:38.042Z,1.48
2023-04-24T09:40:42.451Z,1.70
2023-04-24T09:43:45.308Z,1.60
2023-04-24T09:46:52.342Z,1.70
2023-04-24T09:50:00.071Z,1.60
2023-04-24T09:53:08.222Z,1.45
2023-04-24T09:56:13.452Z,1.58
2023-04-24T09:59:17.536Z,1.42
2023-04-24T10:02:21.645Z,1.60
2023-04-24T10:05:30.816Z,1.83
2023-04-24T10:08:37.291Z,1.73
2023-04-24T10:11:43.738Z,1.60
2023-04-24T10:14:48.687Z,1.58
2023-04-24T10:17:54.300Z,1.67
2023-04-24T10:20:57.890Z,1.98
2023-04-24T10:24:04.554Z,1.60
2023-04-24T10:27:07.824Z,1.55
2023-04-24T10:30:13.566Z,1.50
2023-04-24T10:33:16.907Z,1.30
2023-04-24T10:36:20.897Z,1.40
2023-04-24T10:39:27.291Z,1.77
2023-04-24T10:42:30.901Z,1.35
2023-04-24T10:45:33.924Z,1.52
2023-04-24T10:48:36.940Z,1.23
2023-04-24T10:52:17.544Z,1.40
2023-04-24T10:55:42.635Z,1.50
2023-04-24T10:58:47.500Z,2.58
2023-04-24T11:01:55.390Z,1.40
2023-04-24T11:04:58.318Z,1.52
2023-04-24T11:08:15.530Z,1.50
2023-04-24T11:11:21.798Z,1.38
2023-04-24T11:14:24.639Z,1.80
2023-04-24T11:17:34.993Z,1.33
2023-04-24T11:20:38.022Z,1.50
2023-04-24T11:23:41.848Z,1.50
2023-04-24T11:26:46.968Z,1.38
2023-04-24T11:29:51.252Z,1.40
2023-04-24T11:32:54.299Z,1.35
2023-04-24T11:35:57.312Z,1.67
2023-04-24T11:39:00.641Z,1.42
2023-04-24T11:42:08.161Z,1.48
2023-04-24T11:45:12.817Z,1.55
2023-04-24T11:48:22.524Z,1.45
2023-04-24T11:51:31.249Z,1.33
2023-04-24T11:54:39.224Z,1.15
2023-04-24T11:57:45.575Z,1.33
2023-04-24T12:00:48.369Z,1.23
2023-04-24T12:03:52.154Z,1.20
2023-04-24T12:07:02.002Z,1.38
2023-04-24T12:10:07.124Z,1.58
2023-04-24T12:13:11.689Z,1.30
2023-04-24T12:16:15.373Z,1.20
2023-04-24T12:19:21.296Z,1.30
2023-04-24T12:22:24.126Z,1.10
2023-04-24T12:25:29.219Z,1.45
2023-04-24T12:28:39.485Z,1.38
2023-04-24T12:31:42.380Z,1.90
2023-04-24T12:34:45.838Z,1.45
2023-04-24T12:37:48.902Z,1.20
2023-04-24T12:41:05.052Z,1.40
2023-04-24T12:44:13.157Z,1.48
2023-04-24T12:47:16.328Z,1.08
2023-04-24T12:50:19.334Z,1.10
2023-04-24T12:53:22.125Z,1.65
2023-04-24T12:56:25.393Z,1.50
2023-04-24T12:59:29.546Z,1.42
2023-04-24T13:02:32.840Z,1.00
2023-04-24T13:05:36.002Z,1.50
2023-04-24T13:08:39.046Z,1.27
2023-04-24T13:11:41.785Z,1.10
2023-04-24T13:14:46.545Z,1.55
2023-04-24T13:17:49.550Z,1.00
2023-04-24T13:20:52.351Z,0.98
2023-04-24T13:23:55.445Z,1.20
2023-04-24T13:26:58.377Z,1.08
2023-04-24T13:30:02.712Z,1.20
2023-04-24T13:33:05.796Z,0.95
2023-04-24T13:36:08.768Z,1.20
2023-04-24T13:39:12.055Z,1.38
2023-04-24T13:42:14.895Z,0.90
2023-04-24T13:45:25.160Z,1.10
2023-04-24T13:48:28.583Z,1.17
2023-04-24T13:51:32.195Z,1.02
2023-04-24T13:54:35.033Z,0.98
2023-04-24T13:57:37.927Z,1.00
2023-04-24T14:00:42.086Z,1.00
2023-04-24T14:03:45.800Z,1.17
2023-04-24T14:06:48.793Z,1.15
2023-04-24T14:09:51.864Z,1.00
2023-04-24T14:12:55.182Z,1.00
2023-04-24T14:16:00.238Z,1.02
2023-04-24T14:19:03.042Z,1.05
2023-04-24T14:22:05.877Z,0.80
2023-04-24T14:25:09.753Z,1.02
2023-04-24T14:28:12.505Z,0.90
2023-04-24T14:31:16.701Z,1.02
2023-04-24T14:34:19.489Z,1.77
2023-04-24T14:37:22.621Z,1.23
2023-04-24T14:40:48.407Z,1.08
2023-04-24T14:43:48.364Z,0.98
2023-04-24T14:46:52.732Z,1.10
2023-04-24T14:49:55.603Z,1.52
2023-04-24T14:52:59.211Z,1.00
2023-04-24T14:56:02.040Z,1.20
2023-04-24T14:59:05.080Z,1.25
2023-04-24T15:05:17.816Z,1.33
2023-04-24T15:08:21.237Z,1.33
2023-04-24T15:11:24.030Z,1.02
2023-04-24T15:14:26.911Z,1.83
2023-04-24T15:17:31.098Z,1.00
2023-04-24T15:20:35.134Z,1.00
2023-04-24T15:23:38.821Z,0.98
2023-04-24T15:26:41.701Z,1.20
2023-04-24T15:29:44.537Z,1.00
2023-04-24T15:32:48.722Z,1.42
2023-04-24T15:35:51.875Z,1.10
2023-04-24T15:38:54.683Z,1.30
2023-04-24T15:41:57.621Z,1.15
2023-04-24T15:45:00.587Z,1.20
2023-04-24T15:48:05.036Z,1.65
2023-04-24T15:51:07.817Z,1.20
2023-04-24T15:54:10.613Z,1.00
2023-04-24T15:57:14.028Z,1.23
2023-04-24T16:00:18.699Z,1.13
2023-04-24T16:03:23.607Z,1.20
2023-04-24T16:06:27.716Z,0.95
2023-04-24T16:09:30.498Z,1.17
2023-04-24T16:12:33.362Z,1.40
2023-04-24T16:15:37.392Z,1.25
2023-04-24T16:18:41.767Z,1.50
2023-04-24T16:21:44.543Z,0.82
2023-04-24T16:24:48.029Z,1.05
2023-04-24T16:27:52.681Z,0.80
2023-04-24T16:30:55.727Z,0.98
2023-04-24T16:33:59.840Z,1.35
2023-04-24T16:37:02.633Z,1.00
2023-04-24T16:40:10.770Z,0.90
2023-04-24T16:43:13.609Z,1.13
2023-04-24T16:46:16.448Z,1.42
2023-04-24T16:49:20.804Z,0.82
2023-04-24T16:52:23.594Z,1.08
2023-04-24T16:55:26.404Z,1.00
2023-04-24T16:58:29.216Z,1.48
2023-04-24T17:01:32.070Z,0.90
2023-04-24T17:04:36.538Z,0.93
2023-04-24T17:07:39.539Z,1.00
2023-04-24T17:10:42.350Z,1.15
2023-04-24T17:13:45.373Z,0.88
2023-04-24T17:16:48.392Z,1.00
2023-04-24T17:19:55.379Z,1.20
2023-04-24T17:22:58.259Z,1.10
2023-04-24T17:26:01.543Z,1.00
2023-04-24T17:29:04.297Z,1.00
2023-04-24T17:32:07.109Z,1.00
2023-04-24T17:35:12.282Z,1.20
2023-04-24T17:38:15.136Z,1.10
2023-04-24T17:41:17.919Z,1.67
2023-04-24T17:44:21.273Z,1.25
2023-04-24T17:47:26.123Z,1.92
2023-04-24T17:50:30.264Z,1.13
2023-04-24T17:53:33.129Z,1.50
2023-04-24T17:56:35.902Z,1.30
2023-04-24T17:59:38.725Z,1.90
2023-04-24T18:02:41.623Z,1.73
2023-04-24T18:05:45.778Z,1.42
2023-04-24T18:08:48.770Z,1.55
2023-04-24T18:11:51.826Z,1.85
2023-04-24T18:15:06.214Z,1.35
2023-04-24T18:18:17.784Z,1.10
2023-04-24T18:21:21.978Z,1.40
2023-04-24T18:24:24.877Z,0.93
2023-04-24T18:27:30.871Z,1.05
2023-04-24T18:30:34.758Z,1.05
2023-04-24T18:33:37.673Z,1.23
2023-04-24T18:36:41.958Z,1.30
2023-04-24T18:39:44.842Z,1.00
2023-04-24T18:42:47.701Z,1.23
2023-04-24T18:45:50.415Z,1.00
2023-04-24T18:48:53.258Z,1.20
2023-04-24T18:51:57.398Z,1.48
2023-04-24T18:55:01.568Z,1.50
2023-04-24T18:58:04.383Z,1.75
2023-04-24T19:01:08.312Z,1.85
2023-04-24T19:04:11.547Z,1.70
2023-04-24T19:07:15.937Z,1.67
2023-04-24T19:10:18.948Z,2.40
2023-04-24T19:13:21.723Z,1.98
2023-04-24T19:16:25.759Z,1.90
2023-04-24T19:19:29.900Z,2.17
2023-04-24T19:22:34.650Z,1.70
2023-04-24T19:25:37.561Z,1.83
2023-04-24T19:28:40.437Z,1.80
2023-04-24T19:31:43.296Z,1.88
2023-04-24T19:34:47.287Z,1.67
2023-04-24T19:37:51.439Z,1.75
2023-04-24T19:40:54.201Z,1.73
2023-04-24T19:43:56.974Z,1.90
2023-04-24T19:46:59.822Z,1.40
2023-04-24T19:50:02.656Z,1.40
2023-04-24T19:53:07.459Z,1.50
2023-04-24T19:56:10.538Z,1.55
2023-04-24T19:59:13.340Z,1.58
2023-04-24T20:02:16.274Z,1.58
2023-04-24T20:05:20.092Z,1.27
2023-04-24T20:08:24.359Z,1.30
2023-04-24T20:11:27.243Z,1.52
2023-04-24T20:14:29.999Z,1.52
2023-04-24T20:17:32.813Z,1.50
2023-04-24T20:20:38.609Z,1.30
2023-04-24T20:23:42.896Z,1.45
2023-04-24T20:26:45.618Z,1.55
2023-04-24T20:29:48.398Z,1.50
2023-04-24T20:32:51.320Z,1.45
2023-04-24T20:35:54.204Z,1.23
2023-04-24T20:38:58.314Z,1.33
2023-04-24T20:42:01.123Z,1.35
2023-04-24T20:45:04.022Z,1.50
2023-04-24T20:51:10.993Z,1.30
2023-04-24T20:54:15.128Z,1.35
2023-04-24T20:57:17.915Z,1.48
2023-04-24T21:00:20.756Z,1.38
2023-04-24T21:03:23.635Z,1.40
2023-04-24T21:06:27.117Z,1.42
2023-04-24T21:09:31.220Z,1.30
2023-04-24T21:12:33.942Z,1.42
2023-04-24T21:15:36.765Z,1.38
2023-04-24T21:18:41.341Z,1.45
2023-04-24T21:21:44.256Z,1.15
2023-04-24T21:24:48.382Z,1.30
2023-04-24T21:27:51.196Z,1.20
2023-04-24T21:30:53.956Z,1.30
2023-04-24T21:33:56.703Z,1.70
2023-04-24T21:36:59.727Z,1.30
2023-04-24T21:40:04.818Z,1.08
2023-04-24T21:43:07.747Z,1.40
2023-04-24T21:46:10.762Z,1.40
2023-04-24T21:49:13.656Z,1.20
2023-04-24T21:52:16.468Z,1.40
2023-04-24T21:55:21.390Z,1.27
2023-04-24T21:58:24.264Z,1.40
2023-04-24T22:01:27.003Z,1.30
2023-04-24T22:04:29.846Z,1.30
2023-04-24T22:07:35.227Z,1.08
2023-04-24T22:10:39.360Z,1.23
2023-04-24T22:13:42.078Z,1.05
2023-04-24T22:16:46.029Z,1.27
2023-04-24T22:19:48.960Z,1.50
2023-04-24T22:22:52.398Z,1.15
2023-04-24T22:25:56.593Z,1.30
2023-04-24T22:28:59.336Z,1.13
2023-04-24T22:32:02.177Z,1.52
2023-04-24T22:35:05.514Z,1.05
2023-04-24T22:38:08.279Z,1.15
2023-04-24T22:41:12.483Z,1.10
2023-04-24T22:44:15.296Z,1.15
2023-04-24T22:47:19.693Z,1.40
2023-04-24T22:50:22.520Z,1.15
2023-04-24T22:53:27.681Z,1.10
2023-04-24T22:56:32.565Z,1.25
2023-04-24T22:59:35.426Z,1.23
2023-04-24T23:02:39.768Z,1.30
2023-04-24T23:05:42.698Z,1.48
2023-04-24T23:08:47.170Z,1.52
2023-04-24T23:11:51.388Z,1.30
2023-04-24T23:14:54.173Z,1.00
2023-04-24T23:17:56.972Z,1.42
2023-04-24T23:21:02.250Z,2.15
2023-04-24T23:24:05.411Z,2.60
2023-04-24T23:27:09.525Z,2.88
2023-04-24T23:30:13.049Z,2.10
2023-04-24T23:33:15.879Z,2.15
2023-04-24T23:36:18.690Z,1.60
2023-04-24T23:39:21.487Z,2.25
2023-04-24T23:42:25.596Z,2.58
2023-04-24T23:45:28.691Z,2.05
2023-04-24T23:48:31.435Z,2.30
2023-04-24T23:51:34.223Z,2.30
2023-04-24T23:54:37.024Z,2.15
2023-04-24T23:57:41.143Z,1.80
